Terminal Aerodrome Forecast
Issued by NWS

Home | Current Version | Previous Version | Text Only | Print | Product List | Glossary On
Versions: 1 2 3 4 5 6 7 8 9 10 11 12 13 14 15 16 17 18 19 20 21
061
FTUS43 KIND 290520
TAFBMG
TAF
KBMG 290520Z 2906/3006 06005KT P6SM OVC035
     FM290800 07006KT P6SM OVC025
     FM290900 07005KT P6SM OVC015
     FM291400 08009KT P6SM OVC015
     FM291500 08009KT P6SM OVC025
     FM291700 08008KT P6SM BKN035
     FM300500 11009KT P6SM BKN090
      AMD LTD TO CLD VIS AND WIND TIL 291300=

USA.gov is the U.S. government's official web portal to all federal, state and local government web resources and services.